Sign-in with your pilot id or email, or register

ICAO: LHSN Name / Country: Szolnok / Hungary
Latitude: 47.1229 Longitude: 20.2355
Total Arrivals:
Strict Standards: Non-static method AirportData::getarrflights() should not be called statically, assuming $this from incompatible context in /var/www/customers/vh-7192/web/home/phpvms/core/templates/airport_info.tpl on line 18
0
Total Departures:
Strict Standards: Non-static method AirportData::getdeptflights() should not be called statically, assuming $this from incompatible context in /var/www/customers/vh-7192/web/home/phpvms/core/templates/airport_info.tpl on line 21
1
Latest Arrival: (-) Latest Departure: MTA11P (LHSN-LHBP) Tibor Berces
Metar: LHSN 172215Z 30010KT 270V330 CAVOK 17/11 Q1013 NOSIG RMK BLU
More info

Charts for LHSN


NOTAM


Warning: file_get_contents(http://api.vateud.net/notams/LHSN.json): failed to open stream: Redirection limit reached, aborting in /var/www/customers/vh-7192/web/home/phpvms/core/common/NOTAMSData.class.php on line 18

Warning: Invalid argument supplied for foreach() in /var/www/customers/vh-7192/web/home/phpvms/core/common/NOTAMSData.class.php on line 22

Szolnok